Time;durP1;ratioP1;P1;durP2;ratioP2;P2;SDS_P1;SDS_P2;PMS_P1;PMS_P2;Temp;Humidity;BMP_temperature;BMP_pressure;BME280_temperature;BME280_humidity;BME280_pressure;Samples;Min_cycle;Max_cycle;Signal;HPM_P1;HPM_P2
2022/03/30 00:00:14;;;;;;;6.38;5.63;;;7.00;99.90;;;;;;5020780;28;20049;-79
2022/03/30 00:02:39;;;;;;;12.65;7.93;;;7.00;99.90;;;;;;5021732;28;20152;-79
2022/03/30 00:05:05;;;;;;;7.63;5.90;;;7.00;99.90;;;;;;5022564;28;20551;-78
2022/03/30 00:07:34;;;;;;;7.43;6.70;;;7.00;99.90;;;;;;5022440;28;20095;-79
2022/03/30 00:10:04;;;;;;;8.82;7.55;;;7.00;99.90;;;;;;5008307;28;20049;-79
2022/03/30 00:12:30;;;;;;;9.32;5.97;;;7.00;99.90;;;;;;5025874;28;20099;-78
2022/03/30 00:14:56;;;;;;;9.25;6.70;;;7.00;99.90;;;;;;5007428;28;20065;-78
2022/03/30 00:17:22;;;;;;;10.43;5.72;;;7.00;99.90;;;;;;5025885;28;20077;-79
2022/03/30 00:19:47;;;;;;;8.98;4.40;;;7.00;99.90;;;;;;5025963;28;20495;-79
2022/03/30 00:22:13;;;;;;;6.57;5.53;;;7.10;99.90;;;;;;5025534;28;20048;-79
2022/03/30 00:24:39;;;;;;;11.38;6.57;;;7.00;99.90;;;;;;5025839;28;20124;-79
2022/03/30 00:27:06;;;;;;;9.40;5.38;;;7.00;99.90;;;;;;5026670;28;20136;-78
2022/03/30 00:29:32;;;;;;;5.35;4.70;;;7.00;99.90;;;;;;5024630;28;20046;-78
2022/03/30 00:31:58;;;;;;;6.38;5.78;;;7.00;99.90;;;;;;5025784;28;20057;-79
2022/03/30 00:34:23;;;;;;;8.95;4.75;;;7.00;99.90;;;;;;5007460;28;20641;-78
2022/03/30 00:36:49;;;;;;;16.80;6.38;;;7.00;99.90;;;;;;5025766;28;20571;-79
2022/03/30 00:39:16;;;;;;;6.03;5.47;;;7.00;99.90;;;;;;5024839;28;20038;-79
2022/03/30 00:41:42;;;;;;;6.72;6.00;;;7.00;99.90;;;;;;5026034;28;20049;-79
2022/03/30 00:44:13;;;;;;;9.65;5.65;;;7.00;99.90;;;;;;5007310;28;20065;-78
2022/03/30 00:46:39;;;;;;;10.07;5.18;;;7.10;99.90;;;;;;5038214;28;20039;-76
2022/03/30 00:49:05;;;;;;;11.32;6.00;;;7.00;99.90;;;;;;5045944;28;20049;-78
2022/03/30 00:51:31;;;;;;;8.52;6.35;;;7.10;99.90;;;;;;5044686;28;20048;-79
2022/03/30 00:53:57;;;;;;;8.75;5.78;;;7.10;99.90;;;;;;5010580;28;20152;-79
2022/03/30 00:56:24;;;;;;;9.52;6.05;;;7.10;99.90;;;;;;5035096;28;20179;-79
2022/03/30 00:58:50;;;;;;;8.25;5.50;;;7.10;99.90;;;;;;5006278;28;20416;-79
2022/03/30 01:01:16;;;;;;;6.18;5.38;;;7.10;99.90;;;;;;5025053;28;20175;-79
2022/03/30 01:03:41;;;;;;;8.57;6.75;;;7.10;99.90;;;;;;5025056;28;20124;-79
2022/03/30 01:06:07;;;;;;;8.77;6.50;;;7.10;99.90;;;;;;5025366;28;20120;-79
2022/03/30 01:08:32;;;;;;;7.25;5.60;;;7.10;99.90;;;;;;5024104;28;20091;-79
2022/03/30 01:11:00;;;;;;;5.57;4.63;;;7.20;99.90;;;;;;5007646;28;20052;-79
2022/03/30 01:13:26;;;;;;;5.85;5.32;;;7.20;99.90;;;;;;5023513;28;20049;-79
2022/03/30 01:15:52;;;;;;;17.55;6.05;;;7.10;99.90;;;;;;5024902;28;20048;-78
2022/03/30 01:18:18;;;;;;;6.10;5.57;;;7.10;99.90;;;;;;5006874;28;20051;-79
2022/03/30 01:20:47;;;;;;;7.05;4.82;;;7.20;99.90;;;;;;5043080;28;20731;-78
2022/03/30 01:23:13;;;;;;;10.52;4.80;;;7.10;99.90;;;;;;5044607;28;20052;-78
2022/03/30 01:25:39;;;;;;;8.48;6.13;;;7.20;99.90;;;;;;5044158;28;20453;-79
2022/03/30 01:28:05;;;;;;;6.13;3.67;;;7.20;99.90;;;;;;5026372;28;20037;-79
2022/03/30 01:33:15;;;;;;;4.05;3.70;;;7.20;99.90;;;;;;5011970;28;20059;-78
2022/03/30 01:35:41;;;;;;;6.03;3.15;;;7.20;99.90;;;;;;5044610;28;20040;-78
2022/03/30 01:38:07;;;;;;;5.60;3.25;;;7.20;99.90;;;;;;5044672;28;20131;-78
2022/03/30 01:40:34;;;;;;;7.22;2.30;;;7.20;99.90;;;;;;5044406;28;20564;-78
2022/03/30 01:42:59;;;;;;;3.65;2.13;;;7.20;99.90;;;;;;5025519;28;20406;-79
2022/03/30 01:45:25;;;;;;;3.80;2.35;;;7.30;99.90;;;;;;4997308;28;20053;-79
2022/03/30 01:47:54;;;;;;;1.15;1.13;;;7.20;99.90;;;;;;5004666;28;20044;-78
2022/03/30 01:50:21;;;;;;;1.67;1.58;;;7.20;99.90;;;;;;5018910;28;20057;-78
2022/03/30 01:52:46;;;;;;;1.50;1.45;;;7.20;99.90;;;;;;5026404;28;20049;-78
2022/03/30 01:55:13;;;;;;;3.85;1.73;;;7.20;99.90;;;;;;5025743;28;20056;-78
2022/03/30 01:57:38;;;;;;;1.45;1.10;;;7.10;99.90;;;;;;5042688;28;20033;-76
2022/03/30 02:00:06;;;;;;;1.00;1.00;;;7.10;99.90;;;;;;5043795;28;20107;-79
2022/03/30 02:02:32;;;;;;;0.85;0.80;;;7.10;99.90;;;;;;5025642;28;20041;-79
2022/03/30 02:04:57;;;;;;;1.55;1.55;;;7.10;99.90;;;;;;5042199;28;20083;-78
2022/03/30 02:07:23;;;;;;;0.55;0.55;;;7.10;99.90;;;;;;5043743;28;20044;-78
2022/03/30 02:09:48;;;;;;;2.53;1.42;;;7.10;99.90;;;;;;5043337;28;20546;-79
2022/03/30 02:12:14;;;;;;;0.35;0.35;;;7.10;99.90;;;;;;5043546;28;20471;-78
2022/03/30 02:14:41;;;;;;;0.45;0.45;;;7.10;99.90;;;;;;5042595;28;20690;-79
2022/03/30 02:17:07;;;;;;;3.88;0.55;;;7.10;99.90;;;;;;5036341;28;20038;-78
2022/03/30 02:19:33;;;;;;;0.73;0.73;;;7.10;99.90;;;;;;5023399;28;20069;-78
2022/03/30 02:21:59;;;;;;;0.75;0.73;;;7.00;99.90;;;;;;5023860;28;20464;-78
2022/03/30 02:24:24;;;;;;;1.00;1.00;;;7.00;99.90;;;;;;5005361;28;20558;-79
2022/03/30 02:26:51;;;;;;;0.20;0.20;;;7.00;99.90;;;;;;5023700;28;20107;-78
2022/03/30 02:29:17;;;;;;;0.93;0.93;;;7.00;99.90;;;;;;5022262;28;20061;-79
2022/03/30 02:31:43;;;;;;;1.63;0.82;;;7.00;99.90;;;;;;5022697;28;20064;-79
2022/03/30 02:34:10;;;;;;;3.20;0.57;;;7.00;99.90;;;;;;5023588;28;20056;-79
2022/03/30 02:36:36;;;;;;;0.40;0.40;;;6.90;99.90;;;;;;5023252;28;20072;-79
2022/03/30 02:39:03;;;;;;;0.63;0.60;;;6.90;99.90;;;;;;5023535;28;20088;-79
2022/03/30 02:41:29;;;;;;;0.30;0.30;;;6.90;99.90;;;;;;5023194;28;20049;-79
2022/03/30 02:43:55;;;;;;;0.65;0.32;;;6.90;99.90;;;;;;5022129;28;20052;-78
2022/03/30 02:46:20;;;;;;;0.68;0.47;;;6.90;99.90;;;;;;5023521;28;20080;-79
2022/03/30 02:48:46;;;;;;;0.50;0.50;;;6.90;99.90;;;;;;5024898;28;20049;-79
2022/03/30 02:51:11;;;;;;;0.38;0.38;;;6.90;99.90;;;;;;5024968;28;20118;-79
2022/03/30 02:53:37;;;;;;;0.20;0.20;;;6.90;99.90;;;;;;5008654;28;20049;-78
2022/03/30 02:56:04;;;;;;;0.73;0.73;;;6.80;99.90;;;;;;5025352;28;20075;-78
2022/03/30 02:58:30;;;;;;;0.30;0.30;;;6.80;99.90;;;;;;5024256;28;20693;-78
2022/03/30 03:00:55;;;;;;;0.52;0.52;;;6.80;99.90;;;;;;5042493;28;20051;-78
2022/03/30 03:03:22;;;;;;;0.30;0.30;;;6.70;99.90;;;;;;5023210;28;20045;-78
2022/03/30 03:05:47;;;;;;;0.45;0.45;;;6.70;99.90;;;;;;5022864;28;20042;-78
2022/03/30 03:08:13;;;;;;;0.57;0.30;;;6.70;99.90;;;;;;5022518;28;20180;-79
2022/03/30 03:10:44;;;;;;;0.60;0.60;;;6.70;99.90;;;;;;5022449;28;20111;-76
2022/03/30 03:13:11;;;;;;;0.80;0.80;;;6.60;99.90;;;;;;5004115;28;20045;-79
2022/03/30 03:15:37;;;;;;;0.35;0.35;;;6.60;99.90;;;;;;5022862;28;20041;-78
2022/03/30 03:18:04;;;;;;;0.20;0.20;;;6.60;99.90;;;;;;5036701;28;20055;-78
2022/03/30 03:20:31;;;;;;;1.20;0.47;;;6.60;99.90;;;;;;5042450;28;20402;-78
2022/03/30 03:22:57;;;;;;;0.57;0.57;;;6.60;99.90;;;;;;5024454;28;20071;-79
2022/03/30 03:25:23;;;;;;;0.10;0.10;;;6.70;99.90;;;;;;5042142;28;20400;-79
2022/03/30 03:27:48;;;;;;;0.55;0.47;;;6.60;99.90;;;;;;5041399;28;20047;-79
2022/03/30 03:30:15;;;;;;;0.93;0.82;;;6.70;99.90;;;;;;5041570;28;20224;-79
2022/03/30 03:32:41;;;;;;;0.20;0.20;;;6.70;99.90;;;;;;5042275;28;20486;-79
2022/03/30 03:35:09;;;;;;;0.30;0.30;;;6.70;99.90;;;;;;5042221;28;20043;-78
2022/03/30 03:37:38;;;;;;;0.30;0.30;;;6.70;99.90;;;;;;5042619;28;20454;-78
2022/03/30 03:40:05;;;;;;;0.20;0.20;;;6.60;99.90;;;;;;5025136;28;20073;-78
2022/03/30 03:42:32;;;;;;;0.20;0.20;;;6.60;99.90;;;;;;5040661;28;20041;-78
2022/03/30 03:44:58;;;;;;;0.40;0.40;;;6.60;99.90;;;;;;5036177;28;20124;-79
2022/03/30 03:47:24;;;;;;;17.05;0.50;;;6.60;99.90;;;;;;5032556;28;20538;-78
2022/03/30 03:49:50;;;;;;;0.17;0.17;;;6.60;99.90;;;;;;5041748;28;20082;-78
2022/03/30 03:52:15;;;;;;;0.17;0.17;;;6.60;99.90;;;;;;5042028;28;20072;-79
2022/03/30 03:54:41;;;;;;;1.60;0.95;;;6.60;99.90;;;;;;5023530;28;20059;-78
2022/03/30 03:57:07;;;;;;;0.50;0.25;;;6.60;99.90;;;;;;5042589;28;20037;-78
2022/03/30 03:59:33;;;;;;;0.60;0.60;;;6.60;99.90;;;;;;5040912;28;20069;-78
2022/03/30 04:01:59;;;;;;;0.35;0.35;;;6.50;99.90;;;;;;5041844;28;20469;-78
2022/03/30 04:04:25;;;;;;;0.17;0.17;;;6.50;99.90;;;;;;5023850;28;20049;-79
2022/03/30 04:06:50;;;;;;;0.20;0.20;;;6.50;99.90;;;;;;5041764;28;20487;-78
2022/03/30 04:09:16;;;;;;;0.10;0.10;;;6.50;99.90;;;;;;5020337;28;20504;-78
2022/03/30 04:11:42;;;;;;;0.63;0.63;;;6.50;99.90;;;;;;5021697;28;20125;-79
2022/03/30 04:14:08;;;;;;;0.22;0.22;;;6.50;99.90;;;;;;5022035;28;20046;-78
2022/03/30 04:16:33;;;;;;;0.80;0.77;;;6.50;99.90;;;;;;5019117;28;20048;-78
2022/03/30 04:18:59;;;;;;;0.57;0.57;;;6.40;99.90;;;;;;5001176;28;20132;-78
2022/03/30 04:21:24;;;;;;;3.50;0.73;;;6.40;99.90;;;;;;5000254;28;20046;-78
2022/03/30 04:23:50;;;;;;;0.20;0.20;;;6.40;99.90;;;;;;5002289;28;20404;-78
2022/03/30 04:26:15;;;;;;;2.38;0.93;;;6.40;99.90;;;;;;5000745;28;20566;-78
2022/03/30 04:28:41;;;;;;;0.20;0.20;;;6.40;99.90;;;;;;5001163;28;20045;-78
2022/03/30 04:31:10;;;;;;;0.50;0.50;;;6.40;99.90;;;;;;5002742;28;20038;-79
2022/03/30 04:33:37;;;;;;;0.10;0.10;;;6.40;99.90;;;;;;4984303;28;20555;-78
2022/03/30 04:36:03;;;;;;;1.27;1.15;;;6.40;99.90;;;;;;5001949;28;20042;-78
2022/03/30 04:38:29;;;;;;;2.22;0.77;;;6.30;99.90;;;;;;5000558;28;20157;-78
2022/03/30 04:40:55;;;;;;;0.52;0.50;;;6.30;99.90;;;;;;5000459;28;20387;-78
2022/03/30 04:43:20;;;;;;;0.45;0.45;;;6.30;99.90;;;;;;4999916;28;20053;-79
2022/03/30 04:45:46;;;;;;;0.52;0.52;;;6.30;99.90;;;;;;5001869;28;20046;-79
2022/03/30 04:48:11;;;;;;;1.02;0.93;;;6.30;99.90;;;;;;5018549;28;20054;-79
2022/03/30 04:50:37;;;;;;;0.40;0.40;;;6.30;99.90;;;;;;5016571;28;20065;-79
2022/03/30 04:53:03;;;;;;;1.02;0.82;;;6.30;99.90;;;;;;5002497;28;20084;-79
2022/03/30 04:55:28;;;;;;;1.48;0.63;;;6.20;99.90;;;;;;4995830;28;20077;-78
2022/03/30 04:57:54;;;;;;;0.38;0.38;;;6.20;99.90;;;;;;5005047;28;20038;-78
2022/03/30 05:00:20;;;;;;;1.65;1.10;;;6.20;99.90;;;;;;4993968;28;20390;-79
2022/03/30 05:02:45;;;;;;;0.30;0.30;;;6.20;99.90;;;;;;4985963;28;20046;-78
2022/03/30 05:05:11;;;;;;;0.38;0.38;;;6.20;99.90;;;;;;5027146;28;20088;-78
2022/03/30 05:07:38;;;;;;;4.05;0.75;;;6.20;99.90;;;;;;5005116;28;20050;-78
2022/03/30 05:10:12;;;;;;;0.60;0.60;;;6.20;99.90;;;;;;5025166;28;20054;-78
2022/03/30 05:12:38;;;;;;;0.43;0.43;;;6.20;99.90;;;;;;5021665;28;20045;-80
2022/03/30 05:15:04;;;;;;;0.32;0.32;;;6.20;99.90;;;;;;5024825;28;20038;-78
2022/03/30 05:17:30;;;;;;;0.75;0.75;;;6.10;99.90;;;;;;5007976;28;20064;-78
2022/03/30 05:19:55;;;;;;;1.85;0.52;;;6.10;99.90;;;;;;5024049;28;20034;-78
2022/03/30 05:22:21;;;;;;;0.85;0.85;;;6.10;99.90;;;;;;5024290;28;20047;-79
2022/03/30 05:24:46;;;;;;;0.22;0.22;;;6.20;99.90;;;;;;5006747;28;20046;-77
2022/03/30 05:27:12;;;;;;;0.93;0.82;;;6.10;99.90;;;;;;5023182;28;20053;-80
2022/03/30 05:29:37;;;;;;;0.75;0.57;;;6.10;99.90;;;;;;5018006;28;20427;-79
2022/03/30 05:32:04;;;;;;;0.68;0.30;;;6.00;99.90;;;;;;5024683;28;20036;-80
2022/03/30 05:34:29;;;;;;;0.77;0.45;;;6.00;99.90;;;;;;5030354;28;20112;-79
2022/03/30 05:36:58;;;;;;;0.70;0.70;;;6.00;99.90;;;;;;5009181;28;20811;-79
2022/03/30 05:39:24;;;;;;;0.75;0.68;;;6.00;99.90;;;;;;5004582;28;20119;-79
2022/03/30 05:41:49;;;;;;;0.95;0.60;;;6.00;99.90;;;;;;5008672;28;20037;-78
2022/03/30 05:44:15;;;;;;;0.70;0.70;;;6.00;99.90;;;;;;5010121;28;20077;-78
2022/03/30 05:46:41;;;;;;;0.65;0.65;;;5.90;99.90;;;;;;5023188;28;20110;-79
2022/03/30 05:49:06;;;;;;;0.60;0.60;;;5.90;99.90;;;;;;5011919;28;20456;-82
2022/03/30 05:51:32;;;;;;;2.35;0.90;;;5.90;99.90;;;;;;5015804;28;20045;-79
2022/03/30 05:53:58;;;;;;;0.57;0.57;;;5.90;99.90;;;;;;5023506;28;20076;-78
2022/03/30 05:57:10;;;;;;;1.00;1.00;;;5.90;99.90;;;;;;5000546;28;20042;-79
2022/03/30 05:59:12;;;;;;;6.85;1.15;;;5.90;99.90;;;;;;5015198;28;20052;-84
2022/03/30 06:01:38;;;;;;;2.00;1.13;;;5.90;99.90;;;;;;5023360;28;20045;-82
2022/03/30 06:04:04;;;;;;;1.38;0.75;;;5.90;99.90;;;;;;5010906;28;20480;-82
2022/03/30 06:06:29;;;;;;;1.08;0.98;;;6.00;99.90;;;;;;5020908;28;20136;-82
2022/03/30 06:08:55;;;;;;;0.70;0.70;;;6.00;99.90;;;;;;5021884;28;20055;-82
2022/03/30 06:11:20;;;;;;;1.13;0.95;;;6.00;99.90;;;;;;5022132;28;20415;-82
2022/03/30 06:13:46;;;;;;;1.25;0.77;;;6.10;99.90;;;;;;5022135;28;20515;-83
2022/03/30 06:16:14;;;;;;;2.13;0.90;;;6.10;99.90;;;;;;5022551;28;20045;-83
2022/03/30 06:18:39;;;;;;;0.35;0.35;;;6.10;99.90;;;;;;5022499;28;20084;-83
2022/03/30 06:21:05;;;;;;;0.30;0.30;;;6.10;99.90;;;;;;5023233;28;20077;-83
2022/03/30 06:23:31;;;;;;;7.45;0.90;;;6.10;99.90;;;;;;5022007;28;20392;-83
2022/03/30 06:25:57;;;;;;;0.95;0.95;;;6.10;99.90;;;;;;5022588;28;20049;-85
2022/03/30 06:28:26;;;;;;;0.70;0.70;;;6.10;99.90;;;;;;5021092;28;20077;-80
2022/03/30 06:30:52;;;;;;;0.28;0.28;;;6.10;99.90;;;;;;5022234;28;20080;-86
2022/03/30 06:33:17;;;;;;;1.45;1.15;;;6.10;99.90;;;;;;5022224;28;20057;-79
2022/03/30 06:35:43;;;;;;;1.08;0.73;;;6.10;99.90;;;;;;5005101;28;20523;-79
2022/03/30 06:38:08;;;;;;;0.65;0.65;;;6.10;99.90;;;;;;5021133;28;20033;-77
2022/03/30 06:40:34;;;;;;;1.95;0.63;;;6.20;99.90;;;;;;5021668;28;20038;-80
2022/03/30 06:43:00;;;;;;;1.15;1.15;;;6.20;99.90;;;;;;5021414;28;20685;-79
2022/03/30 06:45:27;;;;;;;0.38;0.38;;;6.20;99.90;;;;;;5012607;28;20061;-79
2022/03/30 06:47:53;;;;;;;0.80;0.80;;;6.20;99.90;;;;;;5001539;28;20036;-79
2022/03/30 06:50:19;;;;;;;1.35;1.05;;;6.20;99.90;;;;;;5002476;28;20069;-79
2022/03/30 06:52:46;;;;;;;0.65;0.65;;;6.20;99.90;;;;;;5001860;28;20196;-80
2022/03/30 06:55:15;;;;;;;0.80;0.52;;;6.20;99.90;;;;;;4983770;28;20050;-79
2022/03/30 06:57:44;;;;;;;0.10;0.10;;;6.20;99.90;;;;;;4984341;28;20041;-79
2022/03/30 07:00:13;;;;;;;0.45;0.45;;;6.30;99.90;;;;;;4984271;28;20073;-80
2022/03/30 07:02:39;;;;;;;3.92;1.38;;;6.30;99.90;;;;;;5001658;28;20319;-79
2022/03/30 07:05:05;;;;;;;0.98;0.88;;;6.30;99.90;;;;;;5002013;28;20110;-79
2022/03/30 07:10:17;;;;;;;9.00;1.95;;;6.30;99.90;;;;;;5001514;28;20054;-80
2022/03/30 07:12:47;;;;;;;3.92;0.40;;;6.30;99.90;;;;;;4983818;28;20107;-80
2022/03/30 07:15:14;;;;;;;0.63;0.63;;;6.40;99.90;;;;;;4983959;28;20046;-79
2022/03/30 07:17:44;;;;;;;3.40;1.00;;;6.40;99.90;;;;;;5001637;28;20519;-80
2022/03/30 07:20:10;;;;;;;0.30;0.30;;;6.50;99.90;;;;;;4983405;28;20331;-79
2022/03/30 07:22:36;;;;;;;0.30;0.30;;;6.50;99.90;;;;;;4984443;28;20129;-79
2022/03/30 07:25:01;;;;;;;0.77;0.77;;;6.50;99.90;;;;;;5001376;28;20202;-80
2022/03/30 07:27:27;;;;;;;1.20;1.05;;;6.50;99.90;;;;;;5000004;28;20049;-79
2022/03/30 07:29:53;;;;;;;0.60;0.60;;;6.60;99.90;;;;;;5001811;28;20081;-80
2022/03/30 07:32:19;;;;;;;0.40;0.40;;;6.60;99.90;;;;;;5000621;28;20048;-79
2022/03/30 07:34:45;;;;;;;0.60;0.47;;;6.60;99.90;;;;;;5001564;28;20115;-80
2022/03/30 07:37:11;;;;;;;0.98;0.50;;;6.60;99.90;;;;;;5001029;28;20045;-80
2022/03/30 07:39:36;;;;;;;0.20;0.20;;;6.70;99.90;;;;;;5001385;28;20053;-79
2022/03/30 07:42:03;;;;;;;0.30;0.30;;;6.70;99.90;;;;;;4983320;28;20396;-79
2022/03/30 07:44:28;;;;;;;1.00;1.00;;;6.70;99.90;;;;;;5001679;28;20041;-80
2022/03/30 07:46:54;;;;;;;0.98;0.47;;;6.70;99.90;;;;;;5021209;28;20124;-79
2022/03/30 07:49:20;;;;;;;1.35;1.08;;;6.80;99.90;;;;;;5020482;28;20041;-79
2022/03/30 07:51:45;;;;;;;3.30;0.93;;;6.80;99.90;;;;;;5020792;28;20325;-79
2022/03/30 07:54:11;;;;;;;8.27;0.75;;;6.80;99.90;;;;;;5002660;28;20045;-79
2022/03/30 07:56:38;;;;;;;1.08;0.60;;;6.80;99.90;;;;;;5020876;28;20647;-79
2022/03/30 07:59:04;;;;;;;0.68;0.68;;;6.80;99.90;;;;;;5020262;28;20177;-80
2022/03/30 08:01:29;;;;;;;0.77;0.77;;;6.80;99.90;;;;;;5002581;28;20391;-80
2022/03/30 08:03:56;;;;;;;3.65;0.68;;;6.80;99.90;;;;;;5020713;28;20044;-80
2022/03/30 08:06:22;;;;;;;0.60;0.60;;;6.80;99.90;;;;;;5020467;28;20540;-80
2022/03/30 08:08:48;;;;;;;0.55;0.43;;;6.80;99.90;;;;;;5002432;28;20154;-80
2022/03/30 08:11:13;;;;;;;0.60;0.60;;;6.90;99.90;;;;;;5020415;28;20089;-80
2022/03/30 08:13:39;;;;;;;10.63;0.95;;;6.90;99.90;;;;;;5019776;28;20122;-79
2022/03/30 08:16:05;;;;;;;0.25;0.25;;;6.90;99.90;;;;;;5020885;28;20056;-80
2022/03/30 08:18:30;;;;;;;1.42;0.55;;;6.90;99.90;;;;;;5020579;28;20052;-80
2022/03/30 08:23:40;;;;;;;0.50;0.50;;;6.90;99.90;;;;;;5019669;28;20053;-80
2022/03/30 08:26:06;;;;;;;0.95;0.95;;;6.90;99.90;;;;;;5003242;28;20037;-79
2022/03/30 08:28:32;;;;;;;0.52;0.52;;;6.90;99.90;;;;;;4986257;28;20484;-80
2022/03/30 08:30:58;;;;;;;0.80;0.75;;;6.90;99.90;;;;;;5024722;28;20077;-79
2022/03/30 08:33:26;;;;;;;0.52;0.52;;;6.80;99.90;;;;;;5023805;28;20112;-80
2022/03/30 08:35:56;;;;;;;1.38;0.63;;;6.80;99.90;;;;;;5024580;28;20045;-79
2022/03/30 08:38:22;;;;;;;3.50;1.65;;;6.90;99.90;;;;;;5006204;28;20030;-79
2022/03/30 08:40:48;;;;;;;2.38;0.52;;;6.90;99.90;;;;;;5024098;28;20046;-79
2022/03/30 08:43:14;;;;;;;2.72;0.63;;;6.90;99.90;;;;;;5023423;28;20068;-79
2022/03/30 08:45:41;;;;;;;1.45;0.80;;;6.90;99.90;;;;;;5023599;28;20041;-80
2022/03/30 08:48:07;;;;;;;0.22;0.22;;;6.90;99.90;;;;;;5024060;28;20500;-79
2022/03/30 08:50:34;;;;;;;0.45;0.45;;;6.90;99.90;;;;;;5024337;28;20044;-80
2022/03/30 08:53:04;;;;;;;0.22;0.22;;;6.90;99.90;;;;;;5023472;28;20500;-79
2022/03/30 08:55:31;;;;;;;0.50;0.50;;;7.00;99.90;;;;;;5023147;28;20061;-79
2022/03/30 08:57:57;;;;;;;0.35;0.35;;;7.00;99.90;;;;;;5023580;28;20190;-81
2022/03/30 09:00:23;;;;;;;0.40;0.40;;;6.90;99.90;;;;;;5025025;28;20053;-82
2022/03/30 09:02:59;;;;;;;1.13;0.30;;;6.90;99.90;;;;;;5025087;28;20552;-80
2022/03/30 09:05:28;;;;;;;7.95;0.90;;;6.90;99.90;;;;;;5008577;28;20042;-84
2022/03/30 09:08:07;;;;;;;0.22;0.22;;;6.90;99.90;;;;;;4998725;28;20065;-86
2022/03/30 09:10:33;;;;;;;0.45;0.45;;;6.90;99.90;;;;;;5008883;28;20057;-81
2022/03/30 09:12:58;;;;;;;0.35;0.35;;;6.90;99.90;;;;;;5021961;28;20037;-83
2022/03/30 09:15:25;;;;;;;0.95;0.40;;;7.00;99.90;;;;;;5023533;28;20049;-83
2022/03/30 09:17:59;;;;;;;0.28;0.28;;;7.00;99.90;;;;;;5024065;28;20022;-81
2022/03/30 09:20:25;;;;;;;0.38;0.38;;;7.00;99.90;;;;;;5022500;28;20057;-81
2022/03/30 09:22:57;;;;;;;0.20;0.20;;;7.00;99.90;;;;;;5005710;28;20487;-87
2022/03/30 09:25:32;;;;;;;0.28;0.28;;;7.10;99.90;;;;;;5018985;28;20125;-92
2022/03/30 09:28:00;;;;;;;0.40;0.40;;;7.10;99.90;;;;;;5021631;28;20042;-92
2022/03/30 09:30:28;;;;;;;0.20;0.20;;;7.10;99.90;;;;;;5006177;28;20330;-91
2022/03/30 09:32:56;;;;;;;0.20;0.20;;;7.10;99.90;;;;;;5023606;28;20438;-90
2022/03/30 09:35:28;;;;;;;3.30;0.40;;;7.20;99.90;;;;;;5000119;28;20068;-88
2022/03/30 09:38:05;;;;;;;0.55;0.55;;;7.20;99.90;;;;;;4986751;28;20103;-84
2022/03/30 09:40:40;;;;;;;2.55;0.77;;;7.20;99.90;;;;;;5002080;28;20049;-89
2022/03/30 09:43:37;;;;;;;6.97;1.15;;;7.20;99.90;;;;;;5005818;28;20392;-91
2022/03/30 09:46:08;;;;;;;0.20;0.20;;;7.20;99.90;;;;;;5007419;28;20054;-94
2022/03/30 09:48:40;;;;;;;0.43;0.43;;;7.30;99.90;;;;;;5010409;28;20076;-94
2022/03/30 09:51:07;;;;;;;0.13;0.13;;;7.30;99.90;;;;;;5009688;28;20049;-92
2022/03/30 09:53:34;;;;;;;0.10;0.10;;;7.30;99.90;;;;;;5026141;28;20195;-89
2022/03/30 09:56:15;;;;;;;0.28;0.28;;;7.30;99.90;;;;;;5026358;28;20522;-88
2022/03/30 09:58:42;;;;;;;1.60;0.80;;;7.30;99.90;;;;;;5019591;28;20463;-88
2022/03/30 10:01:34;;;;;;;3.35;0.57;;;7.30;99.90;;;;;;5023772;28;20120;-88
2022/03/30 10:04:02;;;;;;;0.20;0.20;;;7.40;99.90;;;;;;5015553;28;20129;-87
2022/03/30 10:06:31;;;;;;;0.30;0.30;;;7.40;99.90;;;;;;5043009;28;20288;-88
2022/03/30 10:08:57;;;;;;;0.65;0.60;;;7.40;99.90;;;;;;5028179;28;20089;-87
2022/03/30 10:11:25;;;;;;;2.25;0.52;;;7.40;99.90;;;;;;4995356;28;20077;-86
2022/03/30 10:13:54;;;;;;;0.70;0.60;;;7.40;99.90;;;;;;5007371;28;20400;-89
2022/03/30 10:16:21;;;;;;;0.30;0.30;;;7.40;99.90;;;;;;5019280;28;20090;-88
2022/03/30 10:18:48;;;;;;;0.20;0.20;;;7.50;99.90;;;;;;5005655;28;20371;-86
2022/03/30 10:21:27;;;;;;;0.80;0.68;;;7.50;99.90;;;;;;5021895;28;20408;-88
2022/03/30 10:24:14;;;;;;;0.20;0.20;;;7.50;99.90;;;;;;5018172;28;20044;-94
2022/03/30 10:27:03;;;;;;;0.50;0.50;;;7.50;99.90;;;;;;5028074;28;20037;-86
2022/03/30 10:29:33;;;;;;;0.25;0.25;;;7.50;99.90;;;;;;5003171;28;20089;-91
2022/03/30 10:32:13;;;;;;;2.90;0.85;;;7.50;99.90;;;;;;5015760;28;20131;-94
2022/03/30 10:35:00;;;;;;;5.72;0.80;;;7.60;99.90;;;;;;4997074;28;20057;-94
2022/03/30 10:37:28;;;;;;;0.25;0.25;;;7.60;99.90;;;;;;5013184;28;20034;-87
2022/03/30 10:40:04;;;;;;;2.15;0.65;;;7.60;99.90;;;;;;5013282;28;20527;-94
2022/03/30 10:42:47;;;;;;;0.35;0.35;;;7.60;99.90;;;;;;5008983;28;20771;-87
2022/03/30 10:45:28;;;;;;;1.10;0.90;;;7.60;99.90;;;;;;4994089;28;20038;-93
2022/03/30 10:48:18;;;;;;;0.20;0.20;;;7.60;99.90;;;;;;5028338;28;20060;-85
2022/03/30 10:50:43;;;;;;;0.43;0.43;;;7.60;99.90;;;;;;5028049;28;20068;-85
2022/03/30 10:53:34;;;;;;;0.50;0.50;;;7.70;99.90;;;;;;4980028;28;20045;-89
2022/03/30 10:56:18;;;;;;;0.30;0.30;;;7.70;99.90;;;;;;4999862;28;20034;-87
2022/03/30 10:58:55;;;;;;;0.85;0.85;;;7.70;99.90;;;;;;5017127;28;20053;-96
2022/03/30 11:01:24;;;;;;;4.40;0.63;;;7.70;99.90;;;;;;5012397;28;20416;-88
2022/03/30 11:04:04;;;;;;;0.32;0.32;;;7.80;99.90;;;;;;5017007;28;20038;-96
2022/03/30 11:06:45;;;;;;;0.25;0.25;;;7.80;99.90;;;;;;4999739;28;20127;-88
2022/03/30 11:09:21;;;;;;;0.13;0.13;;;7.90;99.90;;;;;;5014759;28;20072;-92
2022/03/30 11:11:57;;;;;;;0.45;0.45;;;7.80;99.90;;;;;;4994504;28;20500;-89
2022/03/30 11:14:36;;;;;;;3.35;0.82;;;7.80;99.90;;;;;;5017329;28;20076;-95
2022/03/30 11:17:29;;;;;;;0.30;0.30;;;7.80;99.90;;;;;;5013698;28;20095;-95
2022/03/30 11:19:55;;;;;;;0.40;0.40;;;7.80;99.90;;;;;;5013408;28;20043;-87
2022/03/30 11:22:37;;;;;;;0.77;0.77;;;7.70;99.90;;;;;;4995316;28;20049;-81
2022/03/30 11:25:19;;;;;;;0.57;0.57;;;7.80;99.90;;;;;;5010840;28;20041;-86
2022/03/30 11:28:05;;;;;;;1.17;0.52;;;7.80;99.90;;;;;;4993602;28;20515;-84
2022/03/30 11:30:35;;;;;;;9.68;0.63;;;7.80;99.90;;;;;;5026043;28;20046;-95
2022/03/30 11:33:17;;;;;;;0.40;0.40;;;7.90;99.90;;;;;;4992511;28;20069;-89
2022/03/30 11:35:43;;;;;;;1.85;0.63;;;7.90;99.90;;;;;;5029038;28;20041;-87
2022/03/30 11:38:25;;;;;;;0.20;0.20;;;7.90;99.90;;;;;;4981950;28;20140;-88
2022/03/30 11:40:58;;;;;;;0.63;0.63;;;8.00;99.90;;;;;;4996375;28;20042;-96
2022/03/30 11:43:24;;;;;;;1.77;0.63;;;8.00;99.90;;;;;;4993789;28;20053;-93
2022/03/30 11:45:51;;;;;;;0.40;0.38;;;8.00;99.90;;;;;;4990573;28;20053;-92
2022/03/30 11:48:17;;;;;;;0.52;0.52;;;8.00;99.90;;;;;;5018168;28;20041;-87
2022/03/30 11:50:56;;;;;;;0.40;0.40;;;8.00;99.90;;;;;;4989081;28;20647;-91
2022/03/30 11:53:29;;;;;;;0.30;0.30;;;8.10;99.90;;;;;;5007472;28;20045;-86
2022/03/30 11:55:59;;;;;;;0.50;0.50;;;8.10;99.90;;;;;;5019987;28;20080;-89
2022/03/30 11:58:36;;;;;;;0.30;0.30;;;8.00;99.90;;;;;;5002629;28;20045;-89
2022/03/30 12:01:05;;;;;;;0.50;0.50;;;8.10;99.90;;;;;;4994429;28;20068;-88
2022/03/30 12:03:31;;;;;;;1.23;0.85;;;8.00;99.90;;;;;;4992932;28;20049;-95
2022/03/30 12:05:58;;;;;;;0.43;0.43;;;8.10;99.90;;;;;;5001122;28;20049;-96
2022/03/30 12:08:25;;;;;;;1.17;0.73;;;8.20;99.90;;;;;;4995141;28;20041;-93
2022/03/30 12:10:56;;;;;;;2.55;0.55;;;8.20;99.90;;;;;;5018736;28;20279;-92
2022/03/30 12:13:24;;;;;;;0.40;0.40;;;8.20;99.90;;;;;;4991159;28;20045;-89
2022/03/30 12:16:06;;;;;;;2.28;0.85;;;8.20;99.90;;;;;;4999699;28;20076;-96
2022/03/30 12:18:40;;;;;;;16.23;0.68;;;8.20;99.90;;;;;;5017843;28;20041;-96
2022/03/30 12:21:09;;;;;;;2.20;0.60;;;8.20;99.90;;;;;;5019716;28;20424;-87
2022/03/30 12:23:34;;;;;;;0.35;0.35;;;8.20;99.90;;;;;;5004439;28;20447;-85
2022/03/30 12:26:11;;;;;;;0.20;0.20;;;8.10;99.90;;;;;;5011784;28;20079;-85
2022/03/30 12:28:37;;;;;;;1.58;0.68;;;8.10;99.90;;;;;;4968639;28;20050;-86
2022/03/30 12:31:03;;;;;;;7.30;0.65;;;8.10;99.90;;;;;;5000031;28;20095;-84
2022/03/30 12:33:28;;;;;;;0.50;0.47;;;8.10;99.90;;;;;;5000856;28;20042;-83
2022/03/30 12:35:54;;;;;;;0.30;0.30;;;8.20;99.90;;;;;;5001349;28;20053;-86
2022/03/30 12:38:22;;;;;;;1.85;0.82;;;8.20;99.90;;;;;;5000316;28;20046;-87
2022/03/30 12:40:53;;;;;;;0.52;0.52;;;8.20;99.90;;;;;;5000442;28;20147;-86
2022/03/30 12:43:27;;;;;;;0.57;0.57;;;8.30;99.90;;;;;;4998530;28;20417;-87
2022/03/30 12:46:03;;;;;;;0.65;0.32;;;8.40;99.90;;;;;;5013225;28;20105;-87
2022/03/30 12:48:31;;;;;;;2.10;0.77;;;8.40;99.90;;;;;;5002573;28;20559;-87
2022/03/30 12:50:59;;;;;;;0.32;0.32;;;8.40;99.90;;;;;;5002477;28;20050;-86
2022/03/30 12:53:32;;;;;;;0.65;0.50;;;8.40;99.90;;;;;;5019421;28;20038;-86
2022/03/30 12:56:11;;;;;;;0.47;0.47;;;8.40;99.90;;;;;;5020034;28;20128;-87
2022/03/30 12:58:52;;;;;;;0.30;0.30;;;8.50;99.90;;;;;;5020240;28;20041;-87
2022/03/30 13:01:51;;;;;;;1.88;0.60;;;8.50;99.90;;;;;;5017320;28;20417;-86
2022/03/30 13:04:30;;;;;;;0.30;0.30;;;8.50;99.90;;;;;;4986226;28;20069;-87
2022/03/30 13:07:10;;;;;;;0.30;0.30;;;8.50;99.90;;;;;;5020230;28;20037;-86
2022/03/30 13:09:39;;;;;;;0.28;0.28;;;8.50;99.90;;;;;;4999242;28;20406;-87
2022/03/30 13:12:06;;;;;;;0.25;0.25;;;8.50;99.90;;;;;;4999746;28;20208;-86